createdAt,value
2023-03-13T00:00:10.031Z,100885.09
2023-03-13T00:02:38.320Z,100886.94
2023-03-13T00:05:06.056Z,100882.63
2023-03-13T00:07:36.381Z,100887.00
2023-03-13T00:10:18.820Z,100889.63
2023-03-13T00:12:46.286Z,100880.97
2023-03-13T00:15:18.209Z,100901.00
2023-03-13T00:17:50.743Z,100897.50
2023-03-13T00:20:18.565Z,100907.91
2023-03-13T00:22:53.250Z,100893.09
2023-03-13T00:25:21.495Z,100900.91
2023-03-13T00:27:50.720Z,100898.34
2023-03-13T00:30:23.314Z,100898.41
2023-03-13T00:32:56.630Z,100898.50
2023-03-13T00:35:24.295Z,100916.72
2023-03-13T00:37:52.365Z,100910.66
2023-03-13T00:40:21.619Z,100919.38
2023-03-13T00:42:53.759Z,100917.63
2023-03-13T00:45:21.331Z,100913.31
2023-03-13T00:47:50.488Z,100917.69
2023-03-13T00:50:18.171Z,100931.63
2023-03-13T00:52:45.690Z,100928.19
2023-03-13T00:55:13.329Z,100926.44
2023-03-13T00:57:41.476Z,100937.78
2023-03-13T01:00:09.973Z,100936.91
2023-03-13T01:02:43.284Z,100939.53
2023-03-13T01:05:13.348Z,100946.50
2023-03-13T01:07:40.998Z,100941.34
2023-03-13T01:10:09.493Z,100945.69
2023-03-13T01:12:37.795Z,100950.94
2023-03-13T01:15:06.015Z,100957.03
2023-03-13T01:17:36.881Z,100954.47
2023-03-13T01:20:08.055Z,100957.06
2023-03-13T01:22:36.859Z,100963.91
2023-03-13T01:25:10.556Z,100955.25
2023-03-13T01:27:38.794Z,100977.88
2023-03-13T01:30:07.086Z,100970.97
2023-03-13T01:32:36.150Z,100987.59
2023-03-13T01:35:04.081Z,100972.88
2023-03-13T01:37:31.702Z,100991.91
2023-03-13T01:39:59.510Z,100993.69
2023-03-13T01:42:26.947Z,100994.59
2023-03-13T01:44:57.720Z,101004.97
2023-03-13T01:47:26.822Z,101010.97
2023-03-13T01:50:04.257Z,100999.72
2023-03-13T01:52:51.640Z,101005.00
2023-03-13T01:55:33.941Z,101011.91
2023-03-13T01:58:01.948Z,101018.03
2023-03-13T02:00:34.744Z,101025.84
2023-03-13T02:03:11.907Z,101021.44
2023-03-13T02:05:41.447Z,101031.06
2023-03-13T02:08:15.817Z,101031.88
2023-03-13T02:10:55.143Z,101042.34
2023-03-13T02:13:23.002Z,101037.97
2023-03-13T02:15:52.447Z,101047.56
2023-03-13T02:18:20.090Z,101054.47
2023-03-13T02:20:51.592Z,101053.63
2023-03-13T02:23:59.538Z,101064.88
2023-03-13T02:26:27.467Z,101061.53
2023-03-13T02:28:55.780Z,101054.63
2023-03-13T02:31:24.405Z,101079.75
2023-03-13T02:33:52.014Z,101071.13
2023-03-13T02:36:21.564Z,101078.94
2023-03-13T02:38:57.343Z,101087.63
2023-03-13T02:41:27.029Z,101085.00
2023-03-13T02:43:56.937Z,101086.75
2023-03-13T02:46:25.052Z,101096.28
2023-03-13T02:48:57.308Z,101083.31
2023-03-13T02:51:50.528Z,101092.81
2023-03-13T02:54:38.746Z,101104.97
2023-03-13T02:57:07.113Z,101110.19
2023-03-13T02:59:35.167Z,101123.19
2023-03-13T03:02:03.422Z,101123.19
2023-03-13T03:04:31.534Z,101124.94
2023-03-13T03:06:59.853Z,101138.88
2023-03-13T03:09:27.776Z,101129.31
2023-03-13T03:12:02.965Z,101137.19
2023-03-13T03:14:31.124Z,101138.03
2023-03-13T03:16:58.911Z,101143.25
2023-03-13T03:19:31.446Z,101140.66
2023-03-13T03:22:00.489Z,101145.84
2023-03-13T03:24:28.417Z,101153.66
2023-03-13T03:26:55.954Z,101158.03
2023-03-13T03:29:28.202Z,101157.19
2023-03-13T03:31:57.031Z,101152.81
2023-03-13T03:34:24.859Z,101160.59
2023-03-13T03:36:56.436Z,101163.25
2023-03-13T03:39:24.031Z,101163.19
2023-03-13T03:41:51.934Z,101176.22
2023-03-13T03:44:19.448Z,101182.28
2023-03-13T03:46:58.532Z,101186.66
2023-03-13T03:49:29.134Z,101191.88
2023-03-13T03:51:57.017Z,101192.75
2023-03-13T03:54:30.909Z,101203.16
2023-03-13T03:56:59.676Z,101204.91
2023-03-13T03:59:32.589Z,101213.56
2023-03-13T04:02:04.653Z,101218.75
2023-03-13T04:04:33.402Z,101220.47
2023-03-13T04:07:22.764Z,101226.63
2023-03-13T04:09:51.227Z,101224.88
2023-03-13T04:12:40.713Z,101228.28
2023-03-13T04:15:09.413Z,101241.28
2023-03-13T04:17:38.011Z,101241.31
2023-03-13T04:20:07.499Z,101251.78
2023-03-13T04:22:35.302Z,101260.41
2023-03-13T04:25:03.453Z,101260.44
2023-03-13T04:27:33.337Z,101264.72
2023-03-13T04:30:01.489Z,101279.47
2023-03-13T04:33:03.980Z,101279.44
2023-03-13T04:35:53.554Z,101281.22
2023-03-13T04:38:30.903Z,101292.47
2023-03-13T04:41:19.473Z,101292.44
2023-03-13T04:44:05.544Z,101305.44
2023-03-13T04:47:03.892Z,101306.31
2023-03-13T04:49:49.907Z,101308.06
2023-03-13T04:52:42.847Z,101302.84
2023-03-13T04:55:42.448Z,101320.16
2023-03-13T04:58:48.070Z,101326.22
2023-03-13T05:01:35.593Z,101328.84
2023-03-13T05:04:26.172Z,101331.41
2023-03-13T05:07:18.165Z,101337.47
2023-03-13T05:10:12.085Z,101352.22
2023-03-13T05:13:12.080Z,101357.44
2023-03-13T05:16:06.180Z,101356.56
2023-03-13T05:18:52.424Z,101355.75
2023-03-13T05:21:40.644Z,101368.75
2023-03-13T05:24:28.910Z,101368.72
2023-03-13T05:27:11.566Z,101380.84
2023-03-13T05:29:53.010Z,101375.69
2023-03-13T05:32:43.142Z,101378.28
2023-03-13T05:35:37.213Z,101376.59
2023-03-13T05:38:25.908Z,101388.72
2023-03-13T05:41:12.705Z,101387.81
2023-03-13T05:43:58.622Z,101392.16
2023-03-13T05:46:52.636Z,101399.97
2023-03-13T05:49:37.945Z,101401.72
2023-03-13T05:52:12.157Z,101406.03
2023-03-13T05:54:41.891Z,101399.94
2023-03-13T05:57:32.108Z,101412.94
2023-03-13T06:00:04.385Z,101413.84
2023-03-13T06:02:50.074Z,101406.88
2023-03-13T06:05:24.961Z,101412.94
2023-03-13T06:07:53.906Z,101413.78
2023-03-13T06:10:21.595Z,101418.97
2023-03-13T06:12:58.924Z,101425.91
2023-03-13T06:15:36.494Z,101423.22
2023-03-13T06:18:14.741Z,101426.72
2023-03-13T06:20:42.683Z,101434.53
2023-03-13T06:23:10.289Z,101444.91
2023-03-13T06:25:38.732Z,101447.47
2023-03-13T06:28:06.379Z,101444.88
2023-03-13T06:30:33.996Z,101448.34
2023-03-13T06:33:01.680Z,101459.66
2023-03-13T06:35:29.469Z,101460.50
2023-03-13T06:37:56.977Z,101459.63
2023-03-13T06:40:27.589Z,101467.41
2023-03-13T06:42:55.624Z,101465.69
2023-03-13T06:45:23.117Z,101471.75
2023-03-13T06:47:52.222Z,101476.03
2023-03-13T06:50:19.971Z,101478.63
2023-03-13T06:52:48.776Z,101484.72
2023-03-13T06:55:16.572Z,101494.25
2023-03-13T06:57:44.074Z,101494.28
2023-03-13T07:00:12.238Z,101497.69
2023-03-13T07:02:40.269Z,101495.09
2023-03-13T07:05:08.944Z,101505.50
2023-03-13T07:07:37.229Z,101505.50
2023-03-13T07:10:05.295Z,101509.81
2023-03-13T07:12:35.532Z,101503.66
2023-03-13T07:15:03.447Z,101519.34
2023-03-13T07:17:35.240Z,101518.47
2023-03-13T07:20:05.456Z,101514.06
2023-03-13T07:22:33.233Z,101514.84
2023-03-13T07:25:02.556Z,101513.13
2023-03-13T07:27:30.642Z,101514.81
2023-03-13T07:29:58.248Z,101520.81
2023-03-13T07:32:26.094Z,101518.16
2023-03-13T07:34:53.934Z,101518.97
2023-03-13T07:37:21.429Z,101525.97
2023-03-13T07:39:50.325Z,101522.47
2023-03-13T07:42:19.477Z,101526.84
2023-03-13T07:44:47.456Z,101519.88
2023-03-13T07:47:14.917Z,101520.72
2023-03-13T07:49:44.193Z,101529.38
2023-03-13T07:52:12.057Z,101526.66
2023-03-13T07:54:42.830Z,101527.59
2023-03-13T07:57:10.686Z,101524.09
2023-03-13T07:59:38.407Z,101517.94
2023-03-13T08:02:07.286Z,101526.59
2023-03-13T08:04:34.873Z,101527.44
2023-03-13T08:07:02.602Z,101528.31
2023-03-13T08:09:33.395Z,101522.09
2023-03-13T08:12:02.019Z,101523.78
2023-03-13T08:14:31.428Z,101522.78
2023-03-13T08:16:59.777Z,101532.41
2023-03-13T08:19:31.714Z,101539.34
2023-03-13T08:21:59.329Z,101535.78
2023-03-13T08:24:26.987Z,101533.09
2023-03-13T08:26:54.489Z,101536.41
2023-03-13T08:29:22.076Z,101542.56
2023-03-13T08:31:52.720Z,101542.44
2023-03-13T08:34:20.546Z,101557.25
2023-03-13T08:36:48.381Z,101554.59
2023-03-13T08:39:20.259Z,101562.34
2023-03-13T08:41:49.171Z,101565.78
2023-03-13T08:44:21.334Z,101563.91
2023-03-13T08:46:52.457Z,101565.75
2023-03-13T08:49:20.062Z,101573.63
2023-03-13T08:51:47.942Z,101582.00
2023-03-13T08:54:15.512Z,101581.06
2023-03-13T08:56:44.130Z,101578.44
2023-03-13T08:59:12.781Z,101587.16
2023-03-13T09:01:40.349Z,101578.16
2023-03-13T09:04:08.110Z,101586.13
2023-03-13T09:06:37.816Z,101585.75
2023-03-13T09:09:11.945Z,101572.53
2023-03-13T09:11:42.213Z,101579.78
2023-03-13T09:14:10.665Z,101581.38
2023-03-13T09:16:38.776Z,101576.72
2023-03-13T09:19:06.660Z,101580.41
2023-03-13T09:21:35.841Z,101575.91
2023-03-13T09:24:04.029Z,101580.63
2023-03-13T09:26:31.645Z,101579.97
2023-03-13T09:29:01.728Z,101581.72
2023-03-13T09:31:31.594Z,101575.69
2023-03-13T09:34:02.168Z,101570.31
2023-03-13T09:36:30.836Z,101574.53
2023-03-13T09:38:59.809Z,101568.16
2023-03-13T09:41:35.195Z,101576.06
2023-03-13T09:44:14.903Z,101574.25
2023-03-13T09:46:54.725Z,101569.13
2023-03-13T09:49:42.640Z,101576.88
2023-03-13T09:52:13.667Z,101573.28
2023-03-13T09:54:50.150Z,101573.16
2023-03-13T09:57:40.529Z,101575.78
2023-03-13T10:00:13.019Z,101571.44
2023-03-13T10:02:46.673Z,101577.25
2023-03-13T10:05:20.628Z,101570.31
2023-03-13T10:07:48.571Z,101564.97
2023-03-13T10:10:34.603Z,101561.56
2023-03-13T10:13:15.638Z,101563.66
2023-03-13T10:15:59.323Z,101560.84
2023-03-13T10:18:27.485Z,101559.91
2023-03-13T10:21:02.309Z,101553.53
2023-03-13T10:23:32.830Z,101555.72
2023-03-13T10:26:00.553Z,101555.84
2023-03-13T10:28:28.708Z,101553.53
2023-03-13T10:31:08.352Z,101548.69
2023-03-13T10:33:37.275Z,101551.31
2023-03-13T10:36:05.036Z,101550.06
2023-03-13T10:38:47.716Z,101553.47
2023-03-13T10:41:25.519Z,101544.06
2023-03-13T10:43:55.776Z,101544.53
2023-03-13T10:46:28.887Z,101547.91
2023-03-13T10:49:00.918Z,101544.53
2023-03-13T10:51:37.886Z,101539.22
2023-03-13T10:54:22.015Z,101536.78
2023-03-13T10:56:51.024Z,101529.16
2023-03-13T10:59:22.689Z,101532.47
2023-03-13T11:01:52.077Z,101537.28
2023-03-13T11:04:39.954Z,101524.69
2023-03-13T11:07:22.415Z,101527.38
2023-03-13T11:10:01.446Z,101528.84
2023-03-13T11:12:34.520Z,101527.31
2023-03-13T11:15:04.083Z,101524.78
2023-03-13T11:17:40.905Z,101525.59
2023-03-13T11:20:19.549Z,101517.25
2023-03-13T11:23:07.312Z,101520.78
2023-03-13T11:26:01.214Z,101511.41
2023-03-13T11:28:41.304Z,101521.16
2023-03-13T11:31:12.121Z,101513.81
2023-03-13T11:33:51.153Z,101515.50
2023-03-13T11:36:41.001Z,101521.31
2023-03-13T11:39:26.514Z,101522.69
2023-03-13T11:42:38.617Z,101520.56
2023-03-13T11:45:13.245Z,101514.66
2023-03-13T11:48:08.644Z,101508.38
2023-03-13T11:50:45.534Z,101507.78
2023-03-13T11:53:35.632Z,101509.22
2023-03-13T11:56:16.383Z,101508.63
2023-03-13T11:58:49.556Z,101500.91
2023-03-13T12:01:45.526Z,101502.97
2023-03-13T12:04:26.895Z,101507.03
2023-03-13T12:07:06.684Z,101499.75
2023-03-13T12:09:48.445Z,101501.38
2023-03-13T12:12:20.989Z,101499.53
2023-03-13T12:15:06.399Z,101499.53
2023-03-13T12:17:59.886Z,101511.84
2023-03-13T12:20:50.171Z,101503.34
2023-03-13T12:23:47.285Z,101508.09
2023-03-13T12:26:21.036Z,101508.47
2023-03-13T12:29:13.820Z,101511.91
2023-03-13T12:31:57.772Z,101511.91
2023-03-13T12:35:04.103Z,101513.63
2023-03-13T12:37:34.734Z,101512.63
2023-03-13T12:40:25.993Z,101518.63
2023-03-13T12:43:12.488Z,101518.47
2023-03-13T12:45:58.702Z,101518.41
2023-03-13T12:48:45.143Z,101519.44
2023-03-13T12:51:43.010Z,101511.03
2023-03-13T12:54:33.470Z,101510.88
2023-03-13T12:57:23.062Z,101517.09
2023-03-13T12:59:56.514Z,101515.13
2023-03-13T13:02:28.670Z,101517.22
2023-03-13T13:04:59.834Z,101513.09
2023-03-13T13:07:30.731Z,101514.00
2023-03-13T13:10:19.254Z,101510.06
2023-03-13T13:13:15.543Z,101508.59
2023-03-13T13:15:48.157Z,101514.75
2023-03-13T13:18:31.928Z,101511.22
2023-03-13T13:21:02.462Z,101514.59
2023-03-13T13:23:39.051Z,101516.06
2023-03-13T13:26:33.661Z,101510.72
2023-03-13T13:29:12.411Z,101512.75
2023-03-13T13:31:52.444Z,101513.97
2023-03-13T13:34:30.057Z,101518.72
2023-03-13T13:37:00.507Z,101514.03
2023-03-13T13:39:50.208Z,101505.78
2023-03-13T13:42:30.541Z,101515.97
2023-03-13T13:45:16.858Z,101511.19
2023-03-13T13:47:47.461Z,101519.41
2023-03-13T13:50:18.097Z,101512.88
2023-03-13T13:52:48.664Z,101517.97
2023-03-13T13:55:30.884Z,101523.22
2023-03-13T13:58:31.206Z,101518.84
2023-03-13T14:01:02.079Z,101518.59
2023-03-13T14:03:33.039Z,101515.66
2023-03-13T14:06:04.136Z,101511.31
2023-03-13T14:08:37.235Z,101522.75
2023-03-13T14:11:14.289Z,101522.47
2023-03-13T14:13:42.458Z,101520.94
2023-03-13T14:16:24.238Z,101516.13
2023-03-13T14:18:54.380Z,101516.16
2023-03-13T14:21:24.291Z,101513.66
2023-03-13T14:23:52.943Z,101507.00
2023-03-13T14:26:23.419Z,101502.88
2023-03-13T14:29:08.130Z,101503.69
2023-03-13T14:31:39.040Z,101504.81
2023-03-13T14:34:09.549Z,101510.03
2023-03-13T14:36:49.979Z,101510.88
2023-03-13T14:39:32.623Z,101512.34
2023-03-13T14:42:05.709Z,101514.28
2023-03-13T14:44:35.047Z,101516.22
2023-03-13T14:47:17.980Z,101517.91
2023-03-13T14:49:47.351Z,101514.50
2023-03-13T14:52:24.430Z,101514.66
2023-03-13T14:55:04.572Z,101515.91
2023-03-13T14:57:34.042Z,101511.31
2023-03-13T15:00:33.867Z,101507.84
2023-03-13T15:03:24.562Z,101515.72
2023-03-13T15:06:09.979Z,101507.22
2023-03-13T15:09:10.621Z,101514.63
2023-03-13T15:11:54.959Z,101520.69
2023-03-13T15:14:41.025Z,101509.47
2023-03-13T15:17:23.386Z,101507.94
2023-03-13T15:19:56.905Z,101510.56
2023-03-13T15:22:28.945Z,101514.94
2023-03-13T15:25:05.992Z,101508.03
2023-03-13T15:27:36.235Z,101512.44
2023-03-13T15:30:08.607Z,101523.69
2023-03-13T15:32:39.933Z,101519.25
2023-03-13T15:35:30.068Z,101521.97
2023-03-13T15:38:00.178Z,101529.03
2023-03-13T15:40:30.996Z,101528.06
2023-03-13T15:42:59.605Z,101533.56
2023-03-13T15:45:27.416Z,101530.16
2023-03-13T15:48:00.743Z,101533.63
2023-03-13T15:50:30.978Z,101532.78
2023-03-13T15:53:00.869Z,101536.44
2023-03-13T15:55:29.518Z,101539.97
2023-03-13T15:57:57.078Z,101539.06
2023-03-13T16:00:27.057Z,101548.84
2023-03-13T16:02:55.658Z,101548.84
2023-03-13T16:05:23.216Z,101549.78
2023-03-13T16:07:51.986Z,101549.88
2023-03-13T16:10:26.425Z,101557.69
2023-03-13T16:13:00.058Z,101560.38
2023-03-13T16:15:27.927Z,101569.22
2023-03-13T16:17:56.190Z,101566.56
2023-03-13T16:20:31.505Z,101568.13
2023-03-13T16:23:03.793Z,101574.44
2023-03-13T16:25:32.440Z,101569.84
2023-03-13T16:28:00.337Z,101571.06
2023-03-13T16:30:33.367Z,101570.09
2023-03-13T16:33:04.206Z,101572.72
2023-03-13T16:35:31.926Z,101569.19
2023-03-13T16:38:02.729Z,101568.38
2023-03-13T16:40:33.459Z,101572.84
2023-03-13T16:43:01.386Z,101568.47
2023-03-13T16:45:31.075Z,101562.31
2023-03-13T16:47:59.008Z,101575.47
2023-03-13T16:50:37.233Z,101575.38
2023-03-13T16:53:05.877Z,101568.63
2023-03-13T16:55:36.794Z,101574.03
2023-03-13T16:58:05.420Z,101572.28
2023-03-13T17:00:33.781Z,101573.97
2023-03-13T17:03:01.697Z,101577.63
2023-03-13T17:05:30.548Z,101567.25
2023-03-13T17:07:58.140Z,101566.38
2023-03-13T17:10:29.389Z,101569.91
2023-03-13T17:12:58.030Z,101572.59
2023-03-13T17:15:27.271Z,101584.03
2023-03-13T17:17:56.742Z,101587.56
2023-03-13T17:20:29.162Z,101589.38
2023-03-13T17:23:01.168Z,101588.56
2023-03-13T17:25:28.880Z,101589.41
2023-03-13T17:27:56.591Z,101588.63
2023-03-13T17:30:30.400Z,101589.63
2023-03-13T17:32:59.159Z,101587.88
2023-03-13T17:35:27.423Z,101593.13
2023-03-13T17:37:55.286Z,101592.28
2023-03-13T17:40:29.034Z,101598.47
2023-03-13T17:42:58.363Z,101594.25
2023-03-13T17:45:25.847Z,101598.75
2023-03-13T17:47:54.422Z,101600.59
2023-03-13T17:50:26.996Z,101604.19
2023-03-13T17:52:55.547Z,101608.56
2023-03-13T17:55:23.383Z,101603.38
2023-03-13T17:57:53.283Z,101599.88
2023-03-13T18:00:23.187Z,101607.75
2023-03-13T18:02:50.891Z,101618.16
2023-03-13T18:05:18.901Z,101625.38
2023-03-13T18:07:48.616Z,101631.47
2023-03-13T18:10:26.248Z,101627.19
2023-03-13T18:12:55.304Z,101633.34
2023-03-13T18:15:24.866Z,101631.66
2023-03-13T18:17:53.732Z,101631.59
2023-03-13T18:20:28.447Z,101647.34
2023-03-13T18:23:00.817Z,101649.09
2023-03-13T18:25:32.189Z,101652.63
2023-03-13T18:27:59.848Z,101652.63
2023-03-13T18:30:29.786Z,101655.25
2023-03-13T18:32:57.474Z,101655.28
2023-03-13T18:35:25.196Z,101647.53
2023-03-13T18:37:53.160Z,101641.47
2023-03-13T18:40:24.335Z,101648.41
2023-03-13T18:42:52.090Z,101647.59
2023-03-13T18:45:21.646Z,101654.56
2023-03-13T18:47:49.453Z,101649.25
2023-03-13T18:50:20.490Z,101649.16
2023-03-13T18:52:48.265Z,101654.34
2023-03-13T18:55:16.886Z,101648.34
2023-03-13T18:57:44.600Z,101643.97
2023-03-13T19:00:23.276Z,101640.50
2023-03-13T19:02:51.755Z,101648.28
2023-03-13T19:05:20.376Z,101641.41
2023-03-13T19:07:49.742Z,101647.53
2023-03-13T19:10:24.362Z,101654.50
2023-03-13T19:12:58.236Z,101655.34
2023-03-13T19:15:29.050Z,101643.97
2023-03-13T19:18:02.580Z,101649.19
2023-03-13T19:20:32.959Z,101654.50
2023-03-13T19:23:01.111Z,101654.41
2023-03-13T19:25:29.399Z,101651.78
2023-03-13T19:27:57.937Z,101651.00
2023-03-13T19:30:25.977Z,101644.03
2023-03-13T19:32:57.686Z,101645.69
2023-03-13T19:35:25.497Z,101640.50
2023-03-13T19:37:53.146Z,101641.38
2023-03-13T19:40:24.205Z,101640.59
2023-03-13T19:42:51.955Z,101635.31
2023-03-13T19:45:21.833Z,101636.16
2023-03-13T19:47:49.984Z,101635.28
2023-03-13T19:50:21.705Z,101634.53
2023-03-13T19:52:49.638Z,101641.50
2023-03-13T19:55:17.320Z,101647.69
2023-03-13T19:57:45.277Z,101654.69
2023-03-13T20:00:23.711Z,101659.09
2023-03-13T20:02:55.404Z,101657.34
2023-03-13T20:05:24.672Z,101651.31
2023-03-13T20:07:54.006Z,101660.03
2023-03-13T20:10:22.598Z,101654.84
2023-03-13T20:12:50.096Z,101651.41
2023-03-13T20:15:20.707Z,101654.09
2023-03-13T20:17:49.977Z,101656.75
2023-03-13T20:20:17.748Z,101655.91
2023-03-13T20:22:45.868Z,101650.75
2023-03-13T20:25:13.760Z,101653.38
2023-03-13T20:27:49.602Z,101654.25
2023-03-13T20:30:17.600Z,101651.72
2023-03-13T20:32:58.519Z,101658.72
2023-03-13T20:35:28.328Z,101658.75
2023-03-13T20:37:57.885Z,101648.31
2023-03-13T20:40:25.861Z,101643.09
2023-03-13T20:42:53.397Z,101653.63
2023-03-13T20:45:21.051Z,101652.78
2023-03-13T20:47:48.704Z,101643.22
2023-03-13T20:50:19.809Z,101641.56
2023-03-13T20:52:48.842Z,101640.72
2023-03-13T20:55:17.317Z,101643.38
2023-03-13T20:57:45.942Z,101646.91
2023-03-13T21:00:14.063Z,101641.66
2023-03-13T21:02:41.564Z,101640.84
2023-03-13T21:05:09.740Z,101642.66
2023-03-13T21:07:37.368Z,101641.81
2023-03-13T21:10:05.389Z,101640.09
2023-03-13T21:12:33.968Z,101644.53
2023-03-13T21:15:01.484Z,101635.81
2023-03-13T21:17:29.344Z,101640.13
2023-03-13T21:19:57.183Z,101643.63
2023-03-13T21:22:28.501Z,101638.44
2023-03-13T21:24:56.454Z,101643.66
2023-03-13T21:27:24.113Z,101637.56
2023-03-13T21:29:51.790Z,101634.97
2023-03-13T21:32:19.833Z,101634.06
2023-03-13T21:34:47.642Z,101635.81
2023-03-13T21:37:17.726Z,101634.06
2023-03-13T21:39:45.644Z,101638.44
2023-03-13T21:42:13.781Z,101638.44
2023-03-13T21:44:41.572Z,101632.38
2023-03-13T21:47:13.438Z,101631.53
2023-03-13T21:49:41.850Z,101633.22
2023-03-13T21:52:09.626Z,101639.38
2023-03-13T21:54:38.008Z,101632.47
2023-03-13T21:57:05.594Z,101628.16
2023-03-13T21:59:35.043Z,101633.38
2023-03-13T22:02:02.723Z,101628.16
2023-03-13T22:04:30.353Z,101616.91
2023-03-13T22:06:58.555Z,101621.31
2023-03-13T22:09:26.637Z,101616.97
2023-03-13T22:11:55.964Z,101612.63
2023-03-13T22:14:25.860Z,101624.06
2023-03-13T22:16:53.716Z,101630.16
2023-03-13T22:19:27.432Z,101637.16
2023-03-13T22:21:55.062Z,101641.50
2023-03-13T22:24:22.614Z,101640.66
2023-03-13T22:26:50.198Z,101634.63
2023-03-13T22:29:17.894Z,101649.44
2023-03-13T22:31:51.803Z,101643.38
2023-03-13T22:34:19.917Z,101649.47
2023-03-13T22:36:47.592Z,101645.97
2023-03-13T22:39:15.338Z,101647.69
2023-03-13T22:41:43.727Z,101649.44
2023-03-13T22:44:11.224Z,101646.84
2023-03-13T22:46:40.543Z,101649.41
2023-03-13T22:49:08.485Z,101647.69
2023-03-13T22:51:37.474Z,101646.75
2023-03-13T22:54:04.991Z,101648.56
2023-03-13T22:56:32.553Z,101645.06
2023-03-13T22:59:00.317Z,101647.72
2023-03-13T23:01:31.330Z,101646.84
2023-03-13T23:03:58.930Z,101647.72
2023-03-13T23:06:26.812Z,101637.31
2023-03-13T23:08:55.182Z,101644.25
2023-03-13T23:11:23.159Z,101645.16
2023-03-13T23:13:51.172Z,101650.34
2023-03-13T23:16:19.036Z,101642.56
2023-03-13T23:18:47.242Z,101645.13
2023-03-13T23:21:16.290Z,101648.66
2023-03-13T23:23:44.426Z,101654.75
2023-03-13T23:26:14.144Z,101650.34
2023-03-13T23:28:42.363Z,101653.84
2023-03-13T23:31:16.921Z,101646.88
2023-03-13T23:33:47.587Z,101651.25
2023-03-13T23:36:18.422Z,101649.53
2023-03-13T23:38:49.517Z,101640.84
2023-03-13T23:41:17.133Z,101646.13
2023-03-13T23:43:44.974Z,101634.81
2023-03-13T23:46:27.071Z,101628.75
2023-03-13T23:48:56.069Z,101634.88
2023-03-13T23:51:25.362Z,101627.97
2023-03-13T23:53:53.315Z,101631.44
2023-03-13T23:56:20.944Z,101622.78
2023-03-13T23:58:56.059Z,101622.78
